createdAt,value
2023-01-04T00:01:33.659Z,63.35
2023-01-04T00:03:35.654Z,59.97
2023-01-04T00:05:37.477Z,57.75
2023-01-04T00:07:38.965Z,50.55
2023-01-04T00:09:40.477Z,43.25
2023-01-04T00:11:41.976Z,46.92
2023-01-04T00:13:43.577Z,52.92
2023-01-04T00:15:45.197Z,64.15
2023-01-04T00:17:46.759Z,65.78
2023-01-04T00:19:48.260Z,59.50
2023-01-04T00:21:49.758Z,61.17
2023-01-04T00:23:53.959Z,58.75
2023-01-04T00:25:55.471Z,47.88
2023-01-04T00:27:56.964Z,45.95
2023-01-04T00:29:58.466Z,54.17
2023-01-04T00:32:00.016Z,60.25
2023-01-04T00:34:03.471Z,61.72
2023-01-04T00:36:07.007Z,54.42
2023-01-04T00:38:08.498Z,50.17
2023-01-04T00:40:10.566Z,54.33
2023-01-04T00:42:12.141Z,57.88
2023-01-04T00:44:14.496Z,56.95
2023-01-04T00:46:16.140Z,66.28
2023-01-04T00:48:17.789Z,64.70
2023-01-04T00:50:19.297Z,68.75
2023-01-04T00:52:20.794Z,63.45
2023-01-04T00:54:22.649Z,70.60
2023-01-04T00:56:24.217Z,46.92
2023-01-04T00:58:25.797Z,48.47
2023-01-04T01:00:27.473Z,42.50
2023-01-04T01:02:29.230Z,44.78
2023-01-04T01:04:30.934Z,45.55
2023-01-04T01:06:34.120Z,51.88
2023-01-04T01:08:36.197Z,50.67
2023-01-04T01:10:37.733Z,48.60
2023-01-04T01:12:39.229Z,56.00
2023-01-04T01:14:40.754Z,51.55
2023-01-04T01:16:55.053Z,52.22
2023-01-04T01:18:57.767Z,49.60
2023-01-04T01:20:59.338Z,50.28
2023-01-04T01:23:00.951Z,52.00
2023-01-04T01:25:02.546Z,56.70
2023-01-04T01:27:04.163Z,56.70
2023-01-04T01:29:05.773Z,61.72
2023-01-04T01:31:15.410Z,61.20
2023-01-04T01:35:18.339Z,61.80
2023-01-04T01:37:19.895Z,72.55
2023-01-04T01:39:21.416Z,71.85
2023-01-04T01:41:22.858Z,75.13
2023-01-04T01:43:48.857Z,67.25
2023-01-04T01:45:54.814Z,58.10
2023-01-04T01:48:01.881Z,53.45
2023-01-04T01:50:05.986Z,50.30
2023-01-04T01:52:14.361Z,51.15
2023-01-04T01:54:26.745Z,48.33
2023-01-04T01:56:31.597Z,51.20
2023-01-04T01:58:37.516Z,47.28
2023-01-04T02:00:39.150Z,46.92
2023-01-04T02:02:59.028Z,44.63
2023-01-04T02:05:02.366Z,48.38
2023-01-04T02:07:04.604Z,56.85
2023-01-04T02:09:06.237Z,66.18
2023-01-04T02:11:08.053Z,57.97
2023-01-04T02:13:13.799Z,58.67
2023-01-04T02:15:15.443Z,58.08
2023-01-04T02:17:45.152Z,60.88
2023-01-04T02:20:05.093Z,65.35
2023-01-04T02:22:42.653Z,74.60
2023-01-04T02:25:02.760Z,73.35
2023-01-04T02:27:35.406Z,66.53
2023-01-04T02:29:58.597Z,74.05
2023-01-04T02:32:26.166Z,58.10
2023-01-04T02:34:42.955Z,69.63
2023-01-04T02:36:57.518Z,68.10
2023-01-04T02:39:11.362Z,63.90
2023-01-04T02:41:26.334Z,56.08
2023-01-04T02:43:54.023Z,54.05
2023-01-04T02:46:04.642Z,50.78
2023-01-04T02:48:26.411Z,51.45
2023-01-04T02:50:50.943Z,56.17
2023-01-04T02:52:52.533Z,49.95
2023-01-04T02:54:57.169Z,60.10
2023-01-04T02:57:09.124Z,56.33
2023-01-04T02:59:38.071Z,59.75
2023-01-04T03:02:36.279Z,56.72
2023-01-04T03:05:30.405Z,61.35
2023-01-04T03:07:40.737Z,78.25
2023-01-04T03:09:47.641Z,69.57
2023-01-04T03:12:18.055Z,82.95
2023-01-04T03:14:31.568Z,84.72
2023-01-04T03:16:37.152Z,57.53
2023-01-04T03:18:43.648Z,63.55
2023-01-04T03:20:48.609Z,60.13
2023-01-04T03:23:13.992Z,65.45
2023-01-04T03:25:38.104Z,69.55
2023-01-04T03:28:01.233Z,53.28
2023-01-04T03:30:44.988Z,49.25
2023-01-04T03:33:14.355Z,43.85
2023-01-04T03:35:28.248Z,45.65
2023-01-04T03:37:29.786Z,48.75
2023-01-04T03:40:07.981Z,50.30
2023-01-04T03:42:40.156Z,47.58
2023-01-04T03:45:41.536Z,52.28
2023-01-04T03:48:16.423Z,52.25
2023-01-04T03:50:57.555Z,59.40
2023-01-04T03:52:59.492Z,62.35
2023-01-04T03:55:03.864Z,60.22
2023-01-04T03:57:06.902Z,64.30
2023-01-04T03:59:10.128Z,66.97
2023-01-04T04:01:12.675Z,67.50
2023-01-04T04:03:14.385Z,62.55
2023-01-04T04:05:41.073Z,65.50
2023-01-04T04:08:01.258Z,62.40
2023-01-04T04:10:02.807Z,51.42
2023-01-04T04:12:04.546Z,56.53
2023-01-04T04:14:06.075Z,56.63
2023-01-04T04:16:07.689Z,55.00
2023-01-04T04:18:09.547Z,55.15
2023-01-04T04:20:13.022Z,52.33
2023-01-04T04:22:14.528Z,64.97
2023-01-04T04:24:24.631Z,61.70
2023-01-04T04:26:26.335Z,65.85
2023-01-04T04:28:27.897Z,66.30
2023-01-04T04:30:29.414Z,66.03
2023-01-04T04:32:30.927Z,60.88
2023-01-04T04:34:32.447Z,59.35
2023-01-04T04:36:34.187Z,60.58
2023-01-04T04:38:36.178Z,59.63
2023-01-04T04:40:59.507Z,60.15
2023-01-04T04:43:01.119Z,57.63
2023-01-04T04:45:02.699Z,64.93
2023-01-04T04:47:04.302Z,69.68
2023-01-04T04:49:06.466Z,71.22
2023-01-04T04:51:08.027Z,67.60
2023-01-04T04:53:09.541Z,66.18
2023-01-04T04:55:11.073Z,81.35
2023-01-04T04:57:12.598Z,168.13
2023-01-04T04:59:14.874Z,199.93
2023-01-04T05:01:17.032Z,216.57
2023-01-04T05:03:18.757Z,175.05
2023-01-04T05:05:20.354Z,174.65
2023-01-04T05:07:21.882Z,144.90
2023-01-04T05:09:23.475Z,123.20
2023-01-04T05:11:43.602Z,123.53
2023-01-04T05:13:45.105Z,97.43
2023-01-04T05:15:49.224Z,82.20
2023-01-04T05:17:50.751Z,82.47
2023-01-04T05:19:52.272Z,103.40
2023-01-04T05:21:53.720Z,103.85
2023-01-04T05:23:55.312Z,110.47
2023-01-04T05:25:59.976Z,107.45
2023-01-04T05:28:01.907Z,102.10
2023-01-04T05:30:23.566Z,107.07
2023-01-04T05:32:25.137Z,108.13
2023-01-04T05:34:26.660Z,129.63
2023-01-04T05:36:28.216Z,141.25
2023-01-04T05:38:30.407Z,144.02
2023-01-04T05:40:32.105Z,186.60
2023-01-04T05:42:33.653Z,125.72
2023-01-04T05:44:35.141Z,114.22
2023-01-04T05:46:36.793Z,117.60
2023-01-04T05:48:38.417Z,104.13
2023-01-04T05:50:40.059Z,98.10
2023-01-04T05:52:41.584Z,102.90
2023-01-04T05:54:43.204Z,91.68
2023-01-04T05:56:44.725Z,95.88
2023-01-04T05:58:46.242Z,101.20
2023-01-04T06:00:47.839Z,97.68
2023-01-04T06:02:49.586Z,117.50
2023-01-04T06:04:58.180Z,113.80
2023-01-04T06:07:00.172Z,77.78
2023-01-04T06:09:01.681Z,102.93
2023-01-04T06:11:03.321Z,112.15
2023-01-04T06:13:05.391Z,114.70
2023-01-04T06:15:07.930Z,118.40
2023-01-04T06:17:09.540Z,104.95
2023-01-04T06:19:11.169Z,116.55
2023-01-04T06:21:12.796Z,127.47
2023-01-04T06:23:14.323Z,129.77
2023-01-04T06:25:16.057Z,143.00
2023-01-04T06:27:17.641Z,126.85
2023-01-04T06:29:19.526Z,104.05
2023-01-04T06:31:21.151Z,106.93
2023-01-04T06:33:22.812Z,117.28
2023-01-04T06:35:24.369Z,137.48
2023-01-04T06:37:25.977Z,109.80
2023-01-04T06:39:27.705Z,105.38
2023-01-04T06:41:29.294Z,107.95
2023-01-04T06:43:30.875Z,102.55
2023-01-04T06:45:32.480Z,101.13
2023-01-04T06:47:33.956Z,107.72
2023-01-04T06:49:35.455Z,105.30
2023-01-04T06:51:37.029Z,112.68
2023-01-04T06:53:38.756Z,142.45
2023-01-04T06:55:40.328Z,131.75
2023-01-04T06:57:41.815Z,132.00
2023-01-04T06:59:43.380Z,141.65
2023-01-04T07:01:45.016Z,163.90
2023-01-04T07:03:46.661Z,141.05
2023-01-04T07:05:48.262Z,117.65
2023-01-04T07:07:49.757Z,100.38
2023-01-04T07:09:51.258Z,85.53
2023-01-04T07:11:52.875Z,85.03
2023-01-04T07:13:54.406Z,76.32
2023-01-04T07:15:55.981Z,77.05
2023-01-04T07:17:57.540Z,76.35
2023-01-04T07:19:59.068Z,84.78
2023-01-04T07:22:01.929Z,73.38
2023-01-04T07:24:03.630Z,70.05
2023-01-04T07:26:05.302Z,76.70
2023-01-04T07:28:06.892Z,76.60
2023-01-04T07:30:09.388Z,75.00
2023-01-04T07:32:13.945Z,73.28
2023-01-04T07:34:17.809Z,69.75
2023-01-04T07:36:19.349Z,78.80
2023-01-04T07:38:20.853Z,81.78
2023-01-04T07:40:22.577Z,77.53
2023-01-04T07:42:24.206Z,82.07
2023-01-04T07:44:27.791Z,74.90
2023-01-04T07:46:29.482Z,75.10
2023-01-04T07:48:31.213Z,69.18
2023-01-04T07:50:35.457Z,63.47
2023-01-04T07:52:37.726Z,55.80
2023-01-04T07:54:39.263Z,56.25
2023-01-04T07:56:40.912Z,51.80
2023-01-04T07:58:42.561Z,53.95
2023-01-04T08:00:44.082Z,51.05
2023-01-04T08:02:54.860Z,47.05
2023-01-04T08:04:56.862Z,50.20
2023-01-04T08:06:58.461Z,50.58
2023-01-04T08:09:00.508Z,52.45
2023-01-04T08:11:03.493Z,51.20
2023-01-04T08:13:05.080Z,48.60
2023-01-04T08:15:07.276Z,43.60
2023-01-04T08:17:10.087Z,44.05
2023-01-04T08:19:17.761Z,44.83
2023-01-04T08:21:19.257Z,40.63
2023-01-04T08:23:20.922Z,39.95
2023-01-04T08:25:22.811Z,40.30
2023-01-04T08:27:24.336Z,43.30
2023-01-04T08:29:29.604Z,41.97
2023-01-04T08:31:36.207Z,41.80
2023-01-04T08:33:39.190Z,44.25
2023-01-04T08:35:40.793Z,43.88
2023-01-04T08:37:42.569Z,42.80
2023-01-04T08:39:48.670Z,40.17
2023-01-04T08:42:04.763Z,39.08
2023-01-04T08:44:13.052Z,40.72
2023-01-04T08:46:14.977Z,39.97
2023-01-04T08:48:22.618Z,37.05
2023-01-04T08:50:26.039Z,42.80
2023-01-04T08:52:27.596Z,39.03
2023-01-04T08:54:29.119Z,33.30
2023-01-04T08:56:30.657Z,30.23
2023-01-04T08:58:33.225Z,28.00
2023-01-04T09:00:34.793Z,28.08
2023-01-04T09:02:36.671Z,26.23
2023-01-04T09:04:38.406Z,27.95
2023-01-04T09:06:39.986Z,24.02
2023-01-04T09:08:43.244Z,24.70
2023-01-04T09:10:44.732Z,24.48
2023-01-04T09:12:47.937Z,22.50
2023-01-04T09:14:49.633Z,21.73
2023-01-04T09:16:51.202Z,21.33
2023-01-04T09:18:53.235Z,21.67
2023-01-04T09:20:54.780Z,19.35
2023-01-04T09:22:59.144Z,16.95
2023-01-04T09:25:00.910Z,21.30
2023-01-04T09:27:04.682Z,18.33
2023-01-04T09:29:09.644Z,20.83
2023-01-04T09:31:13.896Z,18.10
2023-01-04T09:33:15.471Z,17.58
2023-01-04T09:35:20.599Z,17.33
2023-01-04T09:37:22.282Z,16.65
2023-01-04T09:39:26.328Z,16.58
2023-01-04T09:41:49.847Z,15.68
2023-01-04T09:43:54.069Z,16.00
2023-01-04T09:46:03.195Z,15.63
2023-01-04T09:48:12.074Z,17.05
2023-01-04T09:50:22.101Z,16.27
2023-01-04T09:52:34.907Z,15.43
2023-01-04T09:55:36.394Z,14.80
2023-01-04T09:57:30.095Z,14.82
2023-01-04T09:59:34.347Z,14.02
2023-01-04T10:01:57.739Z,13.95
2023-01-04T10:04:10.424Z,14.70
2023-01-04T10:06:13.212Z,13.57
2023-01-04T10:08:20.295Z,13.73
2023-01-04T10:10:43.961Z,13.55
2023-01-04T10:13:00.090Z,12.85
2023-01-04T10:15:54.493Z,12.93
2023-01-04T10:21:25.285Z,11.45
2023-01-04T10:23:37.303Z,11.15
2023-01-04T10:26:01.239Z,11.77
2023-01-04T10:28:21.124Z,13.88
2023-01-04T10:32:55.979Z,11.20
2023-01-04T10:34:58.478Z,12.35
2023-01-04T10:37:30.519Z,12.02
2023-01-04T10:39:35.926Z,10.85
2023-01-04T10:41:46.811Z,11.63
2023-01-04T10:44:14.024Z,12.10
2023-01-04T10:46:29.213Z,12.15
2023-01-04T10:48:51.045Z,11.38
2023-01-04T10:51:03.556Z,11.23
2023-01-04T10:53:20.800Z,10.27
2023-01-04T10:55:39.045Z,10.95
2023-01-04T10:57:58.098Z,10.68
2023-01-04T11:00:14.873Z,11.43
2023-01-04T11:02:40.249Z,11.80
2023-01-04T11:04:48.213Z,11.70
2023-01-04T11:07:02.969Z,11.18
2023-01-04T11:09:27.965Z,11.00
2023-01-04T11:11:44.995Z,11.63
2023-01-04T11:13:46.861Z,12.25
2023-01-04T11:15:48.413Z,11.60
2023-01-04T11:17:51.807Z,10.25
2023-01-04T11:19:54.496Z,10.60
2023-01-04T11:22:06.128Z,10.50
2023-01-04T11:24:33.664Z,9.60
2023-01-04T11:26:39.191Z,10.43
2023-01-04T11:28:51.615Z,10.48
2023-01-04T11:31:16.957Z,14.57
2023-01-04T11:33:21.578Z,11.40
2023-01-04T11:35:42.219Z,10.32
2023-01-04T11:37:44.327Z,9.80
2023-01-04T11:39:51.285Z,10.57
2023-01-04T11:42:04.702Z,13.15
2023-01-04T11:44:07.112Z,12.85
2023-01-04T11:46:17.568Z,14.93
2023-01-04T11:48:19.145Z,13.60
2023-01-04T11:50:47.704Z,11.57
2023-01-04T11:52:49.296Z,10.75
2023-01-04T11:54:50.859Z,10.38
2023-01-04T11:57:11.705Z,11.75
2023-01-04T11:59:24.505Z,9.98
2023-01-04T12:01:26.988Z,11.52
2023-01-04T12:03:40.147Z,11.30
2023-01-04T12:05:45.407Z,8.07
2023-01-04T12:07:47.737Z,9.38
2023-01-04T12:09:49.246Z,9.27
2023-01-04T12:11:53.621Z,7.28
2023-01-04T12:13:55.282Z,7.60
2023-01-04T12:16:13.228Z,6.65
2023-01-04T12:18:25.952Z,7.72
2023-01-04T12:20:29.910Z,7.10
2023-01-04T12:22:34.680Z,9.05
2023-01-04T12:24:37.270Z,8.55
2023-01-04T12:26:42.845Z,7.60
2023-01-04T12:28:46.325Z,13.90
2023-01-04T12:30:47.853Z,15.93
2023-01-04T12:32:49.779Z,6.32
2023-01-04T12:34:51.487Z,8.70
2023-01-04T12:37:04.539Z,6.35
2023-01-04T12:39:13.062Z,7.80
2023-01-04T12:41:14.629Z,6.63
2023-01-04T12:43:16.218Z,9.77
2023-01-04T12:45:20.802Z,7.53
2023-01-04T12:47:46.873Z,6.70
2023-01-04T12:49:59.238Z,6.45
2023-01-04T12:52:32.055Z,7.03
2023-01-04T12:54:48.736Z,7.60
2023-01-04T12:57:18.213Z,7.20
2023-01-04T12:59:33.106Z,7.20
2023-01-04T13:01:35.696Z,7.38
2023-01-04T13:03:48.253Z,11.13
2023-01-04T13:06:00.827Z,8.52
2023-01-04T13:08:03.637Z,9.55
2023-01-04T13:10:30.751Z,7.63
2023-01-04T13:12:54.253Z,15.32
2023-01-04T13:15:04.680Z,11.30
2023-01-04T13:17:25.629Z,13.18
2023-01-04T13:19:29.265Z,7.30
2023-01-04T13:21:39.722Z,9.43
2023-01-04T13:23:48.430Z,7.22
2023-01-04T13:25:49.908Z,6.65
2023-01-04T13:27:56.232Z,10.80
2023-01-04T13:29:57.826Z,22.42
2023-01-04T13:32:09.854Z,20.48
2023-01-04T13:34:33.194Z,44.42
2023-01-04T13:36:34.803Z,11.45
2023-01-04T13:38:39.221Z,9.25
2023-01-04T13:40:49.253Z,16.23
2023-01-04T13:43:23.493Z,16.00
2023-01-04T13:45:51.486Z,12.23
2023-01-04T13:47:58.479Z,10.88
2023-01-04T13:50:00.965Z,24.50
2023-01-04T13:54:46.583Z,13.05
2023-01-04T13:56:55.169Z,13.73
2023-01-04T13:58:57.721Z,12.60
2023-01-04T14:01:03.889Z,12.68
2023-01-04T14:03:35.911Z,12.57
2023-01-04T14:05:38.642Z,9.15
2023-01-04T14:07:43.126Z,9.25
2023-01-04T14:09:47.862Z,10.48
2023-01-04T14:12:09.414Z,12.07
2023-01-04T14:14:42.427Z,9.15
2023-01-04T14:16:44.378Z,11.38
2023-01-04T14:18:45.966Z,8.50
2023-01-04T14:20:47.599Z,11.18
2023-01-04T14:22:49.141Z,11.50
2023-01-04T14:25:09.424Z,11.00
2023-01-04T14:27:32.188Z,8.80
2023-01-04T14:29:34.488Z,9.30
2023-01-04T14:31:37.267Z,13.32
2023-01-04T14:33:46.171Z,30.92
2023-01-04T14:36:01.745Z,22.98
2023-01-04T14:38:06.157Z,17.95
2023-01-04T14:40:27.046Z,23.40
2023-01-04T14:42:31.381Z,17.63
2023-01-04T14:44:36.034Z,13.32
2023-01-04T14:46:38.242Z,22.73
2023-01-04T14:48:39.846Z,11.07
2023-01-04T14:50:41.343Z,7.75
2023-01-04T14:52:42.873Z,9.43
2023-01-04T14:54:45.277Z,6.93
2023-01-04T14:56:46.856Z,10.32
2023-01-04T14:58:48.374Z,9.73
2023-01-04T15:00:49.934Z,13.45
2023-01-04T15:02:52.254Z,16.17
2023-01-04T15:04:53.967Z,16.10
2023-01-04T15:06:58.665Z,15.93
2023-01-04T15:09:00.323Z,21.15
2023-01-04T15:11:02.547Z,20.52
2023-01-04T15:13:07.476Z,21.85
2023-01-04T15:15:09.875Z,17.40
2023-01-04T15:17:11.488Z,15.82
2023-01-04T15:19:13.273Z,19.33
2023-01-04T15:21:14.863Z,14.18
2023-01-04T15:23:16.449Z,13.40
2023-01-04T15:25:18.080Z,17.40
2023-01-04T15:27:19.628Z,18.83
2023-01-04T15:29:21.146Z,14.85
2023-01-04T15:31:30.052Z,23.20
2023-01-04T15:33:34.127Z,16.30
2023-01-04T15:35:35.826Z,21.48
2023-01-04T15:37:37.594Z,17.13
2023-01-04T15:39:39.177Z,16.92
2023-01-04T15:41:58.993Z,13.65
2023-01-04T15:46:08.970Z,10.55
2023-01-04T15:48:12.756Z,12.73
2023-01-04T15:50:14.351Z,20.92
2023-01-04T15:52:16.684Z,16.05
2023-01-04T15:54:21.846Z,29.42
2023-01-04T15:56:23.632Z,26.65
2023-01-04T15:58:25.177Z,10.23
2023-01-04T16:00:27.134Z,7.57
2023-01-04T16:02:28.911Z,8.15
2023-01-04T16:04:30.586Z,10.50
2023-01-04T16:06:32.080Z,13.52
2023-01-04T16:08:33.664Z,8.35
2023-01-04T16:10:35.254Z,9.73
2023-01-04T16:12:42.973Z,10.93
2023-01-04T16:14:44.532Z,12.18
2023-01-04T16:16:46.082Z,9.00
2023-01-04T16:18:50.200Z,7.63
2023-01-04T16:20:51.720Z,12.77
2023-01-04T16:22:53.223Z,11.10
2023-01-04T16:25:11.658Z,14.63
2023-01-04T16:27:13.835Z,19.58
2023-01-04T16:29:15.573Z,21.42
2023-01-04T16:31:17.169Z,10.32
2023-01-04T16:33:18.684Z,12.32
2023-01-04T16:35:20.188Z,7.18
2023-01-04T16:37:21.788Z,9.93
2023-01-04T16:39:28.373Z,9.60
2023-01-04T16:41:43.633Z,7.78
2023-01-04T16:43:50.641Z,7.78
2023-01-04T16:46:10.907Z,7.43
2023-01-04T16:48:18.196Z,9.15
2023-01-04T16:50:20.262Z,8.82
2023-01-04T16:52:22.066Z,45.92
2023-01-04T16:54:23.681Z,17.75
2023-01-04T16:56:25.662Z,66.10
2023-01-04T16:58:29.866Z,42.65
2023-01-04T17:00:31.889Z,22.83
2023-01-04T17:02:33.500Z,21.73
2023-01-04T17:04:35.129Z,17.15
2023-01-04T17:06:39.085Z,15.57
2023-01-04T17:08:41.073Z,10.00
2023-01-04T17:10:42.623Z,14.13
2023-01-04T17:12:47.711Z,10.77
2023-01-04T17:15:07.964Z,12.15
2023-01-04T17:17:12.576Z,11.68
2023-01-04T17:19:14.110Z,9.75
2023-01-04T17:21:33.275Z,10.43
2023-01-04T17:23:38.486Z,11.05
2023-01-04T17:25:40.222Z,9.90
2023-01-04T17:27:41.774Z,9.90
2023-01-04T17:29:43.466Z,9.75
2023-01-04T17:31:45.723Z,12.00
2023-01-04T17:33:48.615Z,10.27
2023-01-04T17:35:50.891Z,12.88
2023-01-04T17:37:52.433Z,15.27
2023-01-04T17:39:54.489Z,10.27
2023-01-04T17:41:56.096Z,11.50
2023-01-04T17:44:00.834Z,14.93
2023-01-04T17:46:08.035Z,11.98
2023-01-04T17:48:09.585Z,14.05
2023-01-04T17:50:11.107Z,12.43
2023-01-04T17:52:18.206Z,14.50
2023-01-04T17:54:24.022Z,10.98
2023-01-04T17:56:26.662Z,16.23
2023-01-04T17:58:28.626Z,21.10
2023-01-04T18:00:30.157Z,11.25
2023-01-04T18:02:32.591Z,13.40
2023-01-04T18:04:34.208Z,10.63
2023-01-04T18:06:36.870Z,10.00
2023-01-04T18:08:38.422Z,9.88
2023-01-04T18:11:05.813Z,11.20
2023-01-04T18:13:01.481Z,10.15
2023-01-04T18:15:06.452Z,11.27
2023-01-04T18:17:08.181Z,11.15
2023-01-04T18:19:09.725Z,10.95
2023-01-04T18:21:28.360Z,11.13
2023-01-04T18:23:30.608Z,9.50
2023-01-04T18:25:34.977Z,17.77
2023-01-04T18:27:36.529Z,11.63
2023-01-04T18:29:38.045Z,16.70
2023-01-04T18:31:39.632Z,10.63
2023-01-04T18:33:43.166Z,13.45
2023-01-04T18:35:44.775Z,11.15
2023-01-04T18:37:46.497Z,12.85
2023-01-04T18:39:48.718Z,10.40
2023-01-04T18:41:50.300Z,12.18
2023-01-04T18:44:13.254Z,10.95
2023-01-04T18:46:16.084Z,12.95
2023-01-04T18:48:17.901Z,11.02
2023-01-04T18:50:19.433Z,11.73
2023-01-04T18:52:21.053Z,12.07
2023-01-04T18:54:22.748Z,10.75
2023-01-04T18:56:24.342Z,12.52
2023-01-04T18:58:25.838Z,12.50
2023-01-04T19:00:29.858Z,11.10
2023-01-04T19:02:31.790Z,9.82
2023-01-04T19:04:36.224Z,11.55
2023-01-04T19:06:38.072Z,10.63
2023-01-04T19:08:40.151Z,10.68
2023-01-04T19:10:41.729Z,17.25
2023-01-04T19:12:43.873Z,12.15
2023-01-04T19:14:46.920Z,12.50
2023-01-04T19:16:48.518Z,12.70
2023-01-04T19:18:50.186Z,13.18
2023-01-04T19:20:52.086Z,10.02
2023-01-04T19:22:53.588Z,15.50
2023-01-04T19:24:55.102Z,9.05
2023-01-04T19:27:02.654Z,17.88
2023-01-04T19:29:05.631Z,9.80
2023-01-04T19:31:08.993Z,9.77
2023-01-04T19:33:11.213Z,7.90
2023-01-04T19:35:12.816Z,10.43
2023-01-04T19:37:14.366Z,8.63
2023-01-04T19:39:15.887Z,9.05
2023-01-04T19:41:26.389Z,8.80
2023-01-04T19:43:33.390Z,8.02
2023-01-04T19:45:38.707Z,9.27
2023-01-04T19:47:40.396Z,8.73
2023-01-04T19:49:42.030Z,16.75
2023-01-04T19:51:45.457Z,14.07
2023-01-04T19:53:47.189Z,11.98
2023-01-04T19:55:48.821Z,26.48
2023-01-04T19:57:50.445Z,9.85
2023-01-04T19:59:52.100Z,12.77
2023-01-04T20:01:53.788Z,9.85
2023-01-04T20:03:57.161Z,9.57
2023-01-04T20:06:06.105Z,9.52
2023-01-04T20:08:07.820Z,15.83
2023-01-04T20:10:14.221Z,14.18
2023-01-04T20:12:16.472Z,13.00
2023-01-04T20:14:18.017Z,9.77
2023-01-04T20:16:19.719Z,9.20
2023-01-04T20:18:23.877Z,11.30
2023-01-04T20:20:25.416Z,9.70
2023-01-04T20:22:26.941Z,12.65
2023-01-04T20:24:28.521Z,11.77
2023-01-04T20:26:30.199Z,10.52
2023-01-04T20:28:31.728Z,14.13
2023-01-04T20:30:33.371Z,10.90
2023-01-04T20:32:37.869Z,9.15
2023-01-04T20:34:39.554Z,13.18
2023-01-04T20:36:41.116Z,15.52
2023-01-04T20:38:44.628Z,9.95
2023-01-04T20:40:46.236Z,9.65
2023-01-04T20:43:06.533Z,7.93
2023-01-04T20:45:08.470Z,9.68
2023-01-04T20:47:10.093Z,8.70
2023-01-04T20:49:11.599Z,13.35
2023-01-04T20:51:16.166Z,22.45
2023-01-04T20:53:17.817Z,17.63
2023-01-04T20:55:19.957Z,11.57
2023-01-04T20:57:21.571Z,14.68
2023-01-04T20:59:23.239Z,12.27
2023-01-04T21:01:25.608Z,24.75
2023-01-04T21:03:27.284Z,13.73
2023-01-04T21:05:28.847Z,10.65
2023-01-04T21:07:30.409Z,15.48
2023-01-04T21:09:31.939Z,16.23
2023-01-04T21:11:33.499Z,18.75
2023-01-04T21:13:35.327Z,9.13
2023-01-04T21:15:37.385Z,7.35
2023-01-04T21:17:39.198Z,8.00
2023-01-04T21:19:40.687Z,9.07
2023-01-04T21:21:42.221Z,11.13
2023-01-04T21:23:44.694Z,10.35
2023-01-04T21:25:46.924Z,9.48
2023-01-04T21:27:48.527Z,10.13
2023-01-04T21:29:51.366Z,12.07
2023-01-04T21:31:52.895Z,15.95
2023-01-04T21:33:54.566Z,12.68
2023-01-04T21:35:56.079Z,10.80
2023-01-04T21:37:57.683Z,8.48
2023-01-04T21:39:59.235Z,19.60
2023-01-04T21:42:00.774Z,16.70
2023-01-04T21:44:02.355Z,9.20
2023-01-04T21:46:05.926Z,7.72
2023-01-04T21:48:07.810Z,10.25
2023-01-04T21:50:16.610Z,12.77
2023-01-04T21:52:18.664Z,16.10
2023-01-04T21:54:20.358Z,57.83
2023-01-04T21:56:23.316Z,12.18
2023-01-04T21:58:24.866Z,15.00
2023-01-04T22:00:26.391Z,17.33
2023-01-04T22:02:28.057Z,15.80
2023-01-04T22:04:29.870Z,10.57
2023-01-04T22:06:33.227Z,9.93
2023-01-04T22:08:35.551Z,10.57
2023-01-04T22:10:37.073Z,8.07
2023-01-04T22:12:38.625Z,8.07
2023-01-04T22:14:40.131Z,11.30
2023-01-04T22:16:41.792Z,9.75
2023-01-04T22:18:48.471Z,8.52
2023-01-04T22:20:50.023Z,8.10
2023-01-04T22:22:51.546Z,8.35
2023-01-04T22:24:53.137Z,11.23
2023-01-04T22:26:54.659Z,12.75
2023-01-04T22:28:56.296Z,8.27
2023-01-04T22:30:57.866Z,8.70
2023-01-04T22:32:59.491Z,7.70
2023-01-04T22:35:01.066Z,6.03
2023-01-04T22:37:02.616Z,6.18
2023-01-04T22:39:04.202Z,7.53
2023-01-04T22:41:16.639Z,7.25
2023-01-04T22:43:18.172Z,8.00
2023-01-04T22:45:19.668Z,7.43
2023-01-04T22:47:21.190Z,7.50
2023-01-04T22:49:22.871Z,8.20
2023-01-04T22:51:27.541Z,7.25
2023-01-04T22:53:29.309Z,6.47
2023-01-04T22:55:45.838Z,6.80
2023-01-04T22:57:52.407Z,5.28
2023-01-04T22:59:53.944Z,5.20
2023-01-04T23:01:55.562Z,5.70
2023-01-04T23:03:58.663Z,5.82
2023-01-04T23:06:00.451Z,4.75
2023-01-04T23:08:02.025Z,5.20
2023-01-04T23:10:03.797Z,5.80
2023-01-04T23:12:05.545Z,4.65
2023-01-04T23:14:09.312Z,4.47
2023-01-04T23:16:15.924Z,6.40
2023-01-04T23:18:17.472Z,4.75
2023-01-04T23:20:20.506Z,4.90
2023-01-04T23:22:22.693Z,4.70
2023-01-04T23:24:24.228Z,4.63
2023-01-04T23:26:27.370Z,5.28
2023-01-04T23:28:28.957Z,6.20
2023-01-04T23:30:30.518Z,13.95
2023-01-04T23:32:32.342Z,4.60
2023-01-04T23:34:33.924Z,4.50
2023-01-04T23:36:38.339Z,4.50
2023-01-04T23:38:41.367Z,4.70
2023-01-04T23:40:47.886Z,4.70
2023-01-04T23:42:50.994Z,5.88
2023-01-04T23:44:52.522Z,4.88
2023-01-04T23:46:56.744Z,4.28
2023-01-04T23:48:58.328Z,4.20
2023-01-04T23:50:59.848Z,4.38
2023-01-04T23:53:01.410Z,3.92
2023-01-04T23:55:02.936Z,8.18
2023-01-04T23:57:04.878Z,4.53
2023-01-04T23:59:07.255Z,4.22
